Airfield :
LOGIN :

Register | Disclaimer

   EN    FR    IT 

 










Legend :    VFR   Marginal VFR   IFR   Intensive IFR   Very Intensive IFR
Visi :
Ceiling :
>= 8 km
>= 3000ft
5 to 8 km
1000 to 3000 ft
1500m to 5 km
500 to 1000 ft
800 to 1500m
200 to 500 ft
< 800m
< 200 ft
Symbols :   Thunderstorms  Fog  Heavy snow  Heavy precipitations  Wind > 20 kt
SIGMETs :     Misc.  Thunderstorms  Icing  Turbulence  Mountain Waves  Volcanic Ashes







- Airport Elevation : 137 ft
- IATA code : THN


ESGT - Trollhattan-Vanersborg

CURRENT METAR :
  • 161550Z AUTO 01009KT 9999 OVC061/// 19/09 Q1011

EXPIRED METARs :
  • 161520Z AUTO 01009KT 350V050 9999 OVC066/// 19/09 Q1011
  • 161450Z AUTO 01010KT 9999 SCT053/// OVC066/// 19/10 Q1011
  • 161420Z AUTO 36009KT 9999 BKN053/// OVC064/// 18/10 Q1011
  • 161350Z AUTO 35011KT 320V030 9999 BKN057/// BKN068/// 19/08 Q1011
  • 161320Z AUTO 01012KT 330V040 9999 OVC059/// 19/08 Q1010

Expired Forecast.
No reported NOTAMs for that airfield.



MET'MAP, your aeronautical weather chart ! - Copyright ORBIFLY December 2007 - Disclaimer

ORBIFLY MET'MAP TEAM :

Programming & Development : Alexandra Zaïnal
Concept & Development : Baudouin d'Aumeries
Co-Development & Prog : Marc-Olivier Méhu
Technical & hardware support : Manuel Goepfert

Contact : metmap@orbifly.com




SOURCES & CREDITS :

   NOAA